createdAt,value
2018-05-18T00:00:07.722Z,12.87
2018-05-18T00:01:07.672Z,12.86
2018-05-18T00:02:07.686Z,12.83
2018-05-18T00:03:07.737Z,12.83
2018-05-18T00:04:07.713Z,12.82
2018-05-18T00:05:07.732Z,12.8
2018-05-18T00:06:07.861Z,12.79
2018-05-18T00:07:07.746Z,12.76
2018-05-18T00:08:07.720Z,12.73
2018-05-18T00:09:07.876Z,12.72
2018-05-18T00:10:07.707Z,12.72
2018-05-18T00:11:07.759Z,12.71
2018-05-18T00:12:07.756Z,12.74
2018-05-18T00:13:07.711Z,12.72
2018-05-18T00:14:07.726Z,12.71
2018-05-18T00:15:07.663Z,12.7
2018-05-18T00:16:07.679Z,12.66
2018-05-18T00:17:07.727Z,12.65
2018-05-18T00:18:07.686Z,12.61
2018-05-18T00:19:07.707Z,12.57
2018-05-18T00:20:07.706Z,12.55
2018-05-18T00:21:07.724Z,12.54
2018-05-18T00:22:07.707Z,12.53
2018-05-18T00:23:07.745Z,12.51
2018-05-18T00:24:07.679Z,12.5
2018-05-18T00:25:07.695Z,12.51
2018-05-18T00:26:07.708Z,12.5
2018-05-18T00:27:07.699Z,12.49
2018-05-18T00:28:07.721Z,12.45
2018-05-18T00:29:07.678Z,12.46
2018-05-18T00:30:07.717Z,12.46
2018-05-18T00:31:07.724Z,12.43
2018-05-18T00:32:07.753Z,12.41
2018-05-18T00:33:07.745Z,12.4
2018-05-18T00:34:07.711Z,12.36
2018-05-18T00:35:07.687Z,12.31
2018-05-18T00:36:07.690Z,12.31
2018-05-18T00:37:07.730Z,12.29
2018-05-18T00:38:07.726Z,12.25
2018-05-18T00:39:07.725Z,12.25
2018-05-18T00:40:07.693Z,12.19
2018-05-18T00:41:07.714Z,12.18
2018-05-18T00:42:07.717Z,12.17
2018-05-18T00:43:07.701Z,12.14
2018-05-18T00:44:07.740Z,12.11
2018-05-18T00:45:07.713Z,12.08
2018-05-18T00:46:07.881Z,12.06
2018-05-18T00:47:07.755Z,11.99
2018-05-18T00:48:07.749Z,11.97
2018-05-18T00:49:07.704Z,11.97
2018-05-18T00:50:07.731Z,11.94
2018-05-18T00:51:07.746Z,11.92
2018-05-18T00:52:07.756Z,11.89
2018-05-18T00:53:07.727Z,11.88
2018-05-18T00:54:07.725Z,11.84
2018-05-18T00:55:07.754Z,11.84
2018-05-18T00:56:07.714Z,11.83
2018-05-18T00:57:07.726Z,11.83
2018-05-18T00:58:07.722Z,11.83
2018-05-18T00:59:07.704Z,11.82
2018-05-18T01:00:07.825Z,11.79
2018-05-18T01:01:07.856Z,11.82
2018-05-18T01:02:07.745Z,11.79
2018-05-18T01:03:07.874Z,11.79
2018-05-18T01:04:07.754Z,11.77
2018-05-18T01:05:07.744Z,11.76
2018-05-18T01:06:07.737Z,11.78
2018-05-18T01:07:07.719Z,11.74
2018-05-18T01:08:07.751Z,11.74
2018-05-18T01:09:07.746Z,11.71
2018-05-18T01:10:07.792Z,11.71
2018-05-18T01:11:07.722Z,11.7
2018-05-18T01:12:07.740Z,11.68
2018-05-18T01:13:07.739Z,11.66
2018-05-18T01:14:07.725Z,11.63
2018-05-18T01:15:08.280Z,11.64
2018-05-18T01:16:07.785Z,11.63
2018-05-18T01:17:07.712Z,11.63
2018-05-18T01:18:07.799Z,11.63
2018-05-18T01:19:07.877Z,11.6
2018-05-18T01:20:07.757Z,11.62
2018-05-18T01:21:07.718Z,11.6
2018-05-18T01:22:07.840Z,11.6
2018-05-18T01:23:07.768Z,11.58
2018-05-18T01:24:07.753Z,11.55
2018-05-18T01:25:07.756Z,11.57
2018-05-18T01:26:07.798Z,11.56
2018-05-18T01:27:07.769Z,11.56
2018-05-18T01:28:07.772Z,11.53
2018-05-18T01:29:07.795Z,11.52
2018-05-18T01:30:07.748Z,11.51
2018-05-18T01:31:07.748Z,11.5
2018-05-18T01:32:07.760Z,11.49
2018-05-18T01:33:08.088Z,11.45
2018-05-18T01:34:07.763Z,11.45
2018-05-18T01:35:07.775Z,11.41
2018-05-18T01:36:07.761Z,11.38
2018-05-18T01:37:07.735Z,11.36
2018-05-18T01:38:07.754Z,11.31
2018-05-18T01:39:07.736Z,11.3
2018-05-18T01:40:07.735Z,11.3
2018-05-18T01:41:07.884Z,11.28
2018-05-18T01:42:07.713Z,11.25
2018-05-18T01:43:07.764Z,11.25
2018-05-18T01:44:07.744Z,11.26
2018-05-18T01:45:07.712Z,11.19
2018-05-18T01:46:07.711Z,11.18
2018-05-18T01:47:07.753Z,11.19
2018-05-18T01:48:07.763Z,11.17
2018-05-18T01:49:07.750Z,11.16
2018-05-18T01:50:07.764Z,11.13
2018-05-18T01:51:08.112Z,11.14
2018-05-18T01:52:07.729Z,11.08
2018-05-18T01:53:07.755Z,11.08
2018-05-18T01:54:07.773Z,11.03
2018-05-18T01:55:07.843Z,10.9
2018-05-18T01:56:07.768Z,10.92
2018-05-18T01:57:07.758Z,10.93
2018-05-18T01:58:07.761Z,10.94
2018-05-18T01:59:07.750Z,10.94
2018-05-18T02:00:07.751Z,10.92
2018-05-18T02:01:08.069Z,10.9
2018-05-18T02:02:07.710Z,10.89
2018-05-18T02:03:07.701Z,10.87
2018-05-18T02:04:07.731Z,10.87
2018-05-18T02:05:07.870Z,10.86
2018-05-18T02:06:07.742Z,10.85
2018-05-18T02:07:07.741Z,10.83
2018-05-18T02:08:07.751Z,10.83
2018-05-18T02:09:07.740Z,10.82
2018-05-18T02:10:07.728Z,10.8
2018-05-18T02:11:07.762Z,10.77
2018-05-18T02:12:07.821Z,10.79
2018-05-18T02:13:07.776Z,10.77
2018-05-18T02:14:07.792Z,10.76
2018-05-18T02:15:07.736Z,10.75
2018-05-18T02:16:07.722Z,10.75
2018-05-18T02:17:07.750Z,10.74
2018-05-18T02:18:07.809Z,10.72
2018-05-18T02:19:07.785Z,10.67
2018-05-18T02:20:07.716Z,10.68
2018-05-18T02:21:07.733Z,10.69
2018-05-18T02:22:07.887Z,10.69
2018-05-18T02:23:07.928Z,10.7
2018-05-18T02:24:07.741Z,10.7
2018-05-18T02:25:07.896Z,10.7
2018-05-18T02:26:07.749Z,10.72
2018-05-18T02:27:07.732Z,10.73
2018-05-18T02:28:07.751Z,10.71
2018-05-18T02:29:07.765Z,10.74
2018-05-18T02:30:07.747Z,10.71
2018-05-18T02:31:07.758Z,10.74
2018-05-18T02:32:07.765Z,10.7
2018-05-18T02:33:07.738Z,10.7
2018-05-18T02:34:07.781Z,10.7
2018-05-18T02:35:07.738Z,10.7
2018-05-18T02:36:07.764Z,10.7
2018-05-18T02:37:07.740Z,10.69
2018-05-18T02:38:07.725Z,10.69
2018-05-18T02:39:07.851Z,10.68
2018-05-18T02:40:07.774Z,10.65
2018-05-18T02:41:07.771Z,10.67
2018-05-18T02:42:07.875Z,10.64
2018-05-18T02:43:07.743Z,10.67
2018-05-18T02:44:07.746Z,10.65
2018-05-18T02:45:07.749Z,10.64
2018-05-18T02:46:07.782Z,10.64
2018-05-18T02:47:07.871Z,10.64
2018-05-18T02:48:07.941Z,10.65
2018-05-18T02:49:07.872Z,10.67
2018-05-18T02:50:07.781Z,10.67
2018-05-18T02:51:07.795Z,10.66
2018-05-18T02:52:07.757Z,10.64
2018-05-18T02:53:07.741Z,10.65
2018-05-18T02:54:07.767Z,10.65
2018-05-18T02:55:07.766Z,10.66
2018-05-18T02:56:07.935Z,10.67
2018-05-18T02:57:07.935Z,10.67
2018-05-18T02:58:07.779Z,10.64
2018-05-18T02:59:07.852Z,10.62
2018-05-18T03:00:07.791Z,10.63
2018-05-18T03:01:07.762Z,10.62
2018-05-18T03:02:07.780Z,10.63
2018-05-18T03:03:07.806Z,10.63
2018-05-18T03:04:07.770Z,10.65
2018-05-18T03:05:07.924Z,10.63
2018-05-18T03:06:07.873Z,10.63
2018-05-18T03:07:07.832Z,10.63
2018-05-18T03:08:07.845Z,10.63
2018-05-18T03:09:07.815Z,10.64
2018-05-18T03:10:07.806Z,10.63
2018-05-18T03:11:07.886Z,10.61
2018-05-18T03:12:07.835Z,10.62
2018-05-18T03:13:07.952Z,10.62
2018-05-18T03:14:07.796Z,10.64
2018-05-18T03:15:07.887Z,10.61
2018-05-18T03:16:07.929Z,10.61
2018-05-18T03:17:07.935Z,10.6
2018-05-18T03:18:07.907Z,10.58
2018-05-18T03:19:07.790Z,10.55
2018-05-18T03:20:07.841Z,10.53
2018-05-18T03:21:08.911Z,10.55
2018-05-18T03:22:07.766Z,10.52
2018-05-18T03:23:07.815Z,10.5
2018-05-18T03:24:07.766Z,10.48
2018-05-18T03:25:07.838Z,10.45
2018-05-18T03:26:07.796Z,10.44
2018-05-18T03:27:07.801Z,10.42
2018-05-18T03:28:07.882Z,10.43
2018-05-18T03:29:07.766Z,10.4
2018-05-18T03:30:07.808Z,10.43
2018-05-18T03:31:07.867Z,10.4
2018-05-18T03:32:07.781Z,10.42
2018-05-18T03:33:07.781Z,10.44
2018-05-18T03:34:07.785Z,10.43
2018-05-18T03:35:07.801Z,10.43
2018-05-18T03:36:07.870Z,10.43
2018-05-18T03:37:07.751Z,10.43
2018-05-18T03:38:07.787Z,10.43
2018-05-18T03:39:07.766Z,10.42
2018-05-18T03:40:07.787Z,10.42
2018-05-18T03:41:07.792Z,10.4
2018-05-18T03:42:07.764Z,10.37
2018-05-18T03:43:07.780Z,10.37
2018-05-18T03:44:07.835Z,10.36
2018-05-18T03:45:07.791Z,10.39
2018-05-18T03:46:07.756Z,10.39
2018-05-18T03:47:07.782Z,10.4
2018-05-18T03:48:07.760Z,10.39
2018-05-18T03:49:07.777Z,10.37
2018-05-18T03:50:07.760Z,10.39
2018-05-18T03:51:07.762Z,10.36
2018-05-18T03:52:07.751Z,10.37
2018-05-18T03:53:07.783Z,10.36
2018-05-18T03:54:07.767Z,10.36
2018-05-18T03:55:07.765Z,10.38
2018-05-18T03:56:07.867Z,10.37
2018-05-18T03:57:07.774Z,10.38
2018-05-18T03:58:07.823Z,10.35
2018-05-18T03:59:07.803Z,10.37
2018-05-18T04:00:07.843Z,10.38
2018-05-18T04:01:07.789Z,10.37
2018-05-18T04:02:07.789Z,10.4
2018-05-18T04:03:07.756Z,10.39
2018-05-18T04:04:07.773Z,10.4
2018-05-18T04:05:07.918Z,10.38
2018-05-18T04:06:07.819Z,10.4
2018-05-18T04:07:07.832Z,10.41
2018-05-18T04:08:07.803Z,10.39
2018-05-18T04:09:07.888Z,10.41
2018-05-18T04:10:07.847Z,10.41
2018-05-18T04:11:07.791Z,10.44
2018-05-18T04:12:07.858Z,10.38
2018-05-18T04:13:07.806Z,10.39
2018-05-18T04:14:07.778Z,10.39
2018-05-18T04:15:07.922Z,10.36
2018-05-18T04:16:07.822Z,10.36
2018-05-18T04:17:08.103Z,10.34
2018-05-18T04:18:07.782Z,10.34
2018-05-18T04:19:07.801Z,10.3
2018-05-18T04:20:07.803Z,10.33
2018-05-18T04:21:07.764Z,10.32
2018-05-18T04:22:07.816Z,10.3
2018-05-18T04:23:07.800Z,10.3
2018-05-18T04:24:07.802Z,10.29
2018-05-18T04:25:07.855Z,10.29
2018-05-18T04:26:07.820Z,10.28
2018-05-18T04:27:07.782Z,10.27
2018-05-18T04:28:07.797Z,10.26
2018-05-18T04:29:07.799Z,10.27
2018-05-18T04:30:08.567Z,10.17
2018-05-18T04:31:07.808Z,10.21
2018-05-18T04:32:07.937Z,10.23
2018-05-18T04:33:07.814Z,10.23
2018-05-18T04:34:07.780Z,10.24
2018-05-18T04:35:07.781Z,10.25
2018-05-18T04:36:07.943Z,10.29
2018-05-18T04:37:07.791Z,10.28
2018-05-18T04:38:08.025Z,10.3
2018-05-18T04:39:07.782Z,10.33
2018-05-18T04:40:07.800Z,10.35
2018-05-18T04:41:07.800Z,10.38
2018-05-18T04:42:07.833Z,10.4
2018-05-18T04:43:08.410Z,10.41
2018-05-18T04:44:07.873Z,10.44
2018-05-18T04:45:07.787Z,10.44
2018-05-18T04:46:07.904Z,10.47
2018-05-18T04:47:07.915Z,10.48
2018-05-18T04:48:08.064Z,10.5
2018-05-18T04:49:07.825Z,10.5
2018-05-18T04:50:07.795Z,10.53
2018-05-18T04:51:07.776Z,10.54
2018-05-18T04:52:07.847Z,10.55
2018-05-18T04:53:07.846Z,10.58
2018-05-18T04:54:07.811Z,10.58
2018-05-18T04:55:07.847Z,10.6
2018-05-18T04:56:07.857Z,10.63
2018-05-18T04:57:07.792Z,10.62
2018-05-18T04:58:07.922Z,10.64
2018-05-18T04:59:08.076Z,10.67
2018-05-18T05:00:07.789Z,10.68
2018-05-18T05:01:07.813Z,10.69
2018-05-18T05:02:07.803Z,10.66
2018-05-18T05:03:07.824Z,10.69
2018-05-18T05:04:07.831Z,10.67
2018-05-18T05:05:07.811Z,10.65
2018-05-18T05:06:07.792Z,10.56
2018-05-18T05:07:07.961Z,10.61
2018-05-18T05:08:07.788Z,10.6
2018-05-18T05:09:07.817Z,10.63
2018-05-18T05:10:07.792Z,10.63
2018-05-18T05:11:07.834Z,10.66
2018-05-18T05:12:07.804Z,10.67
2018-05-18T05:13:07.800Z,10.64
2018-05-18T05:14:07.818Z,10.68
2018-05-18T05:15:07.830Z,10.65
2018-05-18T05:16:07.842Z,10.67
2018-05-18T05:17:07.929Z,10.7
2018-05-18T05:18:07.937Z,10.73
2018-05-18T05:19:07.832Z,10.68
2018-05-18T05:20:07.938Z,10.68
2018-05-18T05:21:07.790Z,10.62
2018-05-18T05:22:08.244Z,10.59
2018-05-18T05:23:07.850Z,10.64
2018-05-18T05:24:07.817Z,10.56
2018-05-18T05:25:08.707Z,10.54
2018-05-18T05:26:07.816Z,10.51
2018-05-18T05:27:08.169Z,10.56
2018-05-18T05:28:07.909Z,10.55
2018-05-18T05:29:07.804Z,10.61
2018-05-18T05:30:07.895Z,10.54
2018-05-18T05:31:07.836Z,10.51
2018-05-18T05:32:07.825Z,10.47
2018-05-18T05:33:07.839Z,10.43
2018-05-18T05:34:07.848Z,10.51
2018-05-18T05:35:07.827Z,10.55
2018-05-18T05:36:07.858Z,10.62
2018-05-18T05:37:07.817Z,10.61
2018-05-18T05:38:07.949Z,10.51
2018-05-18T05:39:07.852Z,10.52
2018-05-18T05:40:08.064Z,10.54
2018-05-18T05:41:07.874Z,10.58
2018-05-18T05:42:07.829Z,10.61
2018-05-18T05:43:07.880Z,10.65
2018-05-18T05:44:08.370Z,10.69
2018-05-18T05:45:07.843Z,10.75
2018-05-18T05:46:07.848Z,10.81
2018-05-18T05:47:07.838Z,10.86
2018-05-18T05:48:07.817Z,10.87
2018-05-18T05:49:07.887Z,10.91
2018-05-18T05:50:07.824Z,10.92
2018-05-18T05:51:07.862Z,10.95
2018-05-18T05:52:07.834Z,10.95
2018-05-18T05:53:07.876Z,10.99
2018-05-18T05:54:07.869Z,11.07
2018-05-18T05:55:07.807Z,11.09
2018-05-18T05:56:07.871Z,11.05
2018-05-18T05:57:07.821Z,11.07
2018-05-18T05:58:07.860Z,11.08
2018-05-18T05:59:07.933Z,11.11
2018-05-18T06:00:07.813Z,11.09
2018-05-18T06:01:07.870Z,11.08
2018-05-18T06:02:07.826Z,11.12
2018-05-18T06:03:07.837Z,11.16
2018-05-18T06:04:07.857Z,11.2
2018-05-18T06:05:07.833Z,11.16
2018-05-18T06:06:07.870Z,11.25
2018-05-18T06:07:07.830Z,11.3
2018-05-18T06:08:07.831Z,11.29
2018-05-18T06:09:07.849Z,11.36
2018-05-18T06:10:07.836Z,11.39
2018-05-18T06:11:07.829Z,11.42
2018-05-18T06:12:08.290Z,11.46
2018-05-18T06:13:07.879Z,11.46
2018-05-18T06:14:07.872Z,11.51
2018-05-18T06:15:07.896Z,11.55
2018-05-18T06:16:07.861Z,11.53
2018-05-18T06:17:07.863Z,11.54
2018-05-18T06:18:07.911Z,11.58
2018-05-18T06:19:07.867Z,11.59
2018-05-18T06:20:07.867Z,11.53
2018-05-18T06:21:07.934Z,11.47
2018-05-18T06:22:07.856Z,11.51
2018-05-18T06:23:07.818Z,11.53
2018-05-18T06:24:07.837Z,11.54
2018-05-18T06:25:07.832Z,11.6
2018-05-18T06:26:07.898Z,11.63
2018-05-18T06:27:07.942Z,11.67
2018-05-18T06:28:07.852Z,11.67
2018-05-18T06:29:07.870Z,11.71
2018-05-18T06:30:07.820Z,11.7
2018-05-18T06:31:07.874Z,11.72
2018-05-18T06:32:07.837Z,11.79
2018-05-18T06:33:07.842Z,11.86
2018-05-18T06:34:07.824Z,11.88
2018-05-18T06:35:09.386Z,11.93
2018-05-18T06:36:07.842Z,11.88
2018-05-18T06:37:07.848Z,11.92
2018-05-18T06:38:07.913Z,11.95
2018-05-18T06:39:07.925Z,11.92
2018-05-18T06:40:07.949Z,11.96
2018-05-18T06:41:08.268Z,11.97
2018-05-18T06:42:07.839Z,12.04
2018-05-18T06:43:07.834Z,12.02
2018-05-18T06:44:07.858Z,11.98
2018-05-18T06:45:07.943Z,12.02
2018-05-18T06:46:07.847Z,12.05
2018-05-18T06:47:07.862Z,12.04
2018-05-18T06:48:07.916Z,12.07
2018-05-18T06:49:07.875Z,12.12
2018-05-18T06:50:07.898Z,12.16
2018-05-18T06:51:07.879Z,12.17
2018-05-18T06:52:07.860Z,12.16
2018-05-18T06:53:08.025Z,12.15
2018-05-18T06:54:07.957Z,12.18
2018-05-18T06:55:08.107Z,12.23
2018-05-18T06:56:07.878Z,12.27
2018-05-18T06:57:07.878Z,12.29
2018-05-18T06:58:07.833Z,12.25
2018-05-18T06:59:07.994Z,12.28
2018-05-18T07:00:07.848Z,12.33
2018-05-18T07:01:07.865Z,12.37
2018-05-18T07:02:07.851Z,12.43
2018-05-18T07:03:07.852Z,12.51
2018-05-18T07:04:08.669Z,12.55
2018-05-18T07:05:07.853Z,12.56
2018-05-18T07:06:07.873Z,12.53
2018-05-18T07:07:07.856Z,12.58
2018-05-18T07:08:07.849Z,12.55
2018-05-18T07:09:07.870Z,12.65
2018-05-18T07:10:07.855Z,12.69
2018-05-18T07:11:07.883Z,12.74
2018-05-18T07:12:07.861Z,12.77
2018-05-18T07:13:07.893Z,12.79
2018-05-18T07:14:07.994Z,12.85
2018-05-18T07:15:08.115Z,12.87
2018-05-18T07:16:07.877Z,12.89
2018-05-18T07:17:07.985Z,12.89
2018-05-18T07:18:07.859Z,12.87
2018-05-18T07:19:07.886Z,12.9
2018-05-18T07:20:07.868Z,13.01
2018-05-18T07:21:07.917Z,13.01
2018-05-18T07:22:07.841Z,13.03
2018-05-18T07:23:09.281Z,13.03
2018-05-18T07:24:07.882Z,13.08
2018-05-18T07:25:07.865Z,13
2018-05-18T07:26:08.016Z,13.03
2018-05-18T07:27:07.921Z,13.09
2018-05-18T07:28:07.902Z,13.16
2018-05-18T07:29:07.986Z,13.2
2018-05-18T07:30:09.240Z,13.27
2018-05-18T07:31:07.919Z,13.27
2018-05-18T07:32:07.865Z,13.26
2018-05-18T07:33:07.885Z,13.24
2018-05-18T07:34:08.034Z,13.25
2018-05-18T07:35:07.881Z,13.32
2018-05-18T07:36:08.596Z,13.32
2018-05-18T07:37:08.000Z,13.33
2018-05-18T07:38:07.960Z,13.33
2018-05-18T07:39:07.896Z,13.4
2018-05-18T07:40:08.011Z,13.4
2018-05-18T07:41:07.894Z,13.43
2018-05-18T07:42:07.869Z,13.39
2018-05-18T07:43:07.901Z,13.44
2018-05-18T07:44:07.871Z,13.44
2018-05-18T07:45:08.012Z,13.48
2018-05-18T07:46:07.959Z,13.5
2018-05-18T07:47:07.974Z,13.5
2018-05-18T07:48:07.971Z,13.57
2018-05-18T07:49:07.856Z,13.56
2018-05-18T07:50:08.680Z,13.63
2018-05-18T07:51:07.902Z,13.66
2018-05-18T07:52:07.865Z,13.67
2018-05-18T07:53:07.872Z,13.66
2018-05-18T07:54:07.891Z,13.67
2018-05-18T07:55:07.863Z,13.72
2018-05-18T07:56:07.893Z,13.75
2018-05-18T07:57:07.879Z,13.76
2018-05-18T07:58:07.896Z,13.86
2018-05-18T07:59:07.908Z,13.75
2018-05-18T08:00:07.908Z,13.74
2018-05-18T08:01:07.889Z,13.73
2018-05-18T08:02:07.920Z,13.8
2018-05-18T08:03:07.887Z,13.8
2018-05-18T08:04:07.890Z,13.85
2018-05-18T08:05:07.910Z,13.89
2018-05-18T08:06:07.884Z,13.94
2018-05-18T08:07:07.865Z,13.99
2018-05-18T08:08:07.895Z,14
2018-05-18T08:09:07.972Z,14.04
2018-05-18T08:10:07.889Z,14.04
2018-05-18T08:11:07.882Z,14
2018-05-18T08:12:07.878Z,14.01
2018-05-18T08:13:07.879Z,14.01
2018-05-18T08:14:07.948Z,13.92
2018-05-18T08:15:08.376Z,13.98
2018-05-18T08:16:07.920Z,14.07
2018-05-18T08:17:07.888Z,14.05
2018-05-18T08:18:07.874Z,14.02
2018-05-18T08:19:07.901Z,14.09
2018-05-18T08:20:07.962Z,14.1
2018-05-18T08:21:07.889Z,14.12
2018-05-18T08:22:07.900Z,14.17
2018-05-18T08:23:07.895Z,14.17
2018-05-18T08:24:07.906Z,14.22
2018-05-18T08:25:07.937Z,14.24
2018-05-18T08:26:07.865Z,14.23
2018-05-18T08:27:08.527Z,14.25
2018-05-18T08:28:07.901Z,14.27
2018-05-18T08:29:08.033Z,14.3
2018-05-18T08:30:07.892Z,14.32
2018-05-18T08:31:08.067Z,14.27
2018-05-18T08:32:08.111Z,14.35
2018-05-18T08:33:07.933Z,14.45
2018-05-18T08:34:07.931Z,14.47
2018-05-18T08:35:07.920Z,14.56
2018-05-18T08:36:07.927Z,14.5
2018-05-18T08:37:07.908Z,14.46
2018-05-18T08:38:07.980Z,14.51
2018-05-18T08:39:08.452Z,14.54
2018-05-18T08:40:07.977Z,14.55
2018-05-18T08:41:07.895Z,14.6
2018-05-18T08:42:07.924Z,14.64
2018-05-18T08:43:07.876Z,14.62
2018-05-18T08:44:07.901Z,14.6
2018-05-18T08:45:08.303Z,14.58
2018-05-18T08:46:07.982Z,14.59
2018-05-18T08:47:07.952Z,14.6
2018-05-18T08:48:07.913Z,14.62
2018-05-18T08:49:08.080Z,14.73
2018-05-18T08:50:07.901Z,14.73
2018-05-18T08:51:07.909Z,14.74
2018-05-18T08:52:08.136Z,14.76
2018-05-18T08:53:07.940Z,14.75
2018-05-18T08:54:08.063Z,14.68
2018-05-18T08:55:08.027Z,14.71
2018-05-18T08:56:07.957Z,14.72
2018-05-18T08:57:08.730Z,14.76
2018-05-18T08:58:07.919Z,14.78
2018-05-18T08:59:07.889Z,14.76
2018-05-18T09:00:07.935Z,14.79
2018-05-18T09:01:07.902Z,14.8
2018-05-18T09:02:07.939Z,14.78
2018-05-18T09:03:07.913Z,14.78
2018-05-18T09:04:07.918Z,14.84
2018-05-18T09:05:07.981Z,14.94
2018-05-18T09:06:07.901Z,14.97
2018-05-18T09:07:07.906Z,14.96
2018-05-18T09:08:07.922Z,15.02
2018-05-18T09:09:07.969Z,15.05
2018-05-18T09:10:07.898Z,15.08
2018-05-18T09:11:07.966Z,15.12
2018-05-18T09:12:07.903Z,15.16
2018-05-18T09:13:07.907Z,15.28
2018-05-18T09:14:07.928Z,15.22
2018-05-18T09:15:07.932Z,15.3
2018-05-18T09:16:07.903Z,15.33
2018-05-18T09:17:07.899Z,15.34
2018-05-18T09:18:07.901Z,15.34
2018-05-18T09:19:07.933Z,15.27
2018-05-18T09:20:07.925Z,15.28
2018-05-18T09:21:07.972Z,15.36
2018-05-18T09:22:07.961Z,15.22
2018-05-18T09:23:08.041Z,15.27
2018-05-18T09:24:08.040Z,15.3
2018-05-18T09:25:07.943Z,15.35
2018-05-18T09:26:07.903Z,15.4
2018-05-18T09:27:07.934Z,15.42
2018-05-18T09:28:07.922Z,15.38
2018-05-18T09:29:07.897Z,15.4
2018-05-18T09:30:07.939Z,15.42
2018-05-18T09:31:07.938Z,15.4
2018-05-18T09:32:07.905Z,15.41
2018-05-18T09:33:07.921Z,15.42
2018-05-18T09:34:08.493Z,15.43
2018-05-18T09:35:07.931Z,15.39
2018-05-18T09:36:07.957Z,15.41
2018-05-18T09:37:07.934Z,15.46
2018-05-18T09:38:07.946Z,15.48
2018-05-18T09:39:08.094Z,15.43
2018-05-18T09:40:07.956Z,15.52
2018-05-18T09:41:07.945Z,15.71
2018-05-18T09:42:07.955Z,15.77
2018-05-18T09:43:07.964Z,15.84
2018-05-18T09:44:08.026Z,15.8
2018-05-18T09:45:08.732Z,15.8
2018-05-18T09:46:08.009Z,15.77
2018-05-18T09:47:07.970Z,15.8
2018-05-18T09:48:08.833Z,15.92
2018-05-18T09:49:08.575Z,15.93
2018-05-18T09:50:08.620Z,15.98
2018-05-18T09:51:08.596Z,15.95
2018-05-18T09:52:08.738Z,15.89
2018-05-18T09:53:08.355Z,15.89
2018-05-18T09:54:09.947Z,15.92
2018-05-18T09:55:11.627Z,16.03
2018-05-18T09:56:08.691Z,16.04
2018-05-18T09:57:07.957Z,16.03
2018-05-18T09:58:08.096Z,16.07
2018-05-18T09:59:08.142Z,16.15
2018-05-18T10:00:07.978Z,16.17
2018-05-18T10:01:07.951Z,16.22
2018-05-18T10:02:07.947Z,16.29
2018-05-18T10:03:07.952Z,16.23
2018-05-18T10:04:07.921Z,16.2
2018-05-18T10:05:07.983Z,16.18
2018-05-18T10:06:07.939Z,16.12
2018-05-18T10:07:07.954Z,16.12
2018-05-18T10:08:07.946Z,16.23
2018-05-18T10:09:08.138Z,16.27
2018-05-18T10:10:08.107Z,16.25
2018-05-18T10:11:07.937Z,16.29
2018-05-18T10:12:08.186Z,16.4
2018-05-18T10:13:07.988Z,16.32
2018-05-18T10:14:07.985Z,16.18
2018-05-18T10:15:08.102Z,16.27
2018-05-18T10:16:07.943Z,16.36
2018-05-18T10:17:07.940Z,16.55
2018-05-18T10:18:07.961Z,16.5
2018-05-18T10:19:07.967Z,16.48
2018-05-18T10:20:07.948Z,16.53
2018-05-18T10:21:07.978Z,16.64
2018-05-18T10:22:07.993Z,16.7
2018-05-18T10:23:07.958Z,16.74
2018-05-18T10:24:07.997Z,16.74
2018-05-18T10:25:07.940Z,16.76
2018-05-18T10:26:07.974Z,16.82
2018-05-18T10:27:08.024Z,16.87
2018-05-18T10:28:07.964Z,16.91
2018-05-18T10:29:07.967Z,16.9
2018-05-18T10:30:07.942Z,16.81
2018-05-18T10:31:07.927Z,16.8
2018-05-18T10:32:07.936Z,16.85
2018-05-18T10:33:07.944Z,16.89
2018-05-18T10:34:07.929Z,16.9
2018-05-18T10:35:07.951Z,16.98
2018-05-18T10:36:07.948Z,17.02
2018-05-18T10:37:08.078Z,17.07
2018-05-18T10:38:08.227Z,16.94
2018-05-18T10:39:07.937Z,16.95
2018-05-18T10:40:07.994Z,16.88
2018-05-18T10:41:07.983Z,16.89
2018-05-18T10:42:07.964Z,16.96
2018-05-18T10:43:07.997Z,17
2018-05-18T10:44:08.041Z,17.05
2018-05-18T10:45:07.976Z,17.04
2018-05-18T10:46:07.976Z,17.08
2018-05-18T10:47:08.609Z,16.98
2018-05-18T10:48:07.967Z,17.05
2018-05-18T10:49:08.737Z,17.07
2018-05-18T10:50:07.991Z,17.1
2018-05-18T10:51:08.006Z,17.08
2018-05-18T10:52:07.997Z,17.09
2018-05-18T10:53:09.122Z,17.14
2018-05-18T10:54:08.070Z,17.19
2018-05-18T10:55:08.091Z,17.19
2018-05-18T10:56:08.009Z,17.24
2018-05-18T10:57:08.253Z,17.29
2018-05-18T10:58:08.004Z,17.38
2018-05-18T10:59:08.701Z,17.2
2018-05-18T11:00:08.707Z,17.21
2018-05-18T11:01:08.983Z,17.03
2018-05-18T11:02:08.633Z,17.11
2018-05-18T11:03:09.144Z,17.15
2018-05-18T11:04:08.899Z,17.15
2018-05-18T11:05:09.038Z,17.17
2018-05-18T11:06:08.814Z,17.22
2018-05-18T11:07:08.562Z,17.14
2018-05-18T11:08:08.119Z,17.21
2018-05-18T11:09:08.059Z,17.29
2018-05-18T11:10:07.965Z,17.43
2018-05-18T11:11:07.970Z,17.36
2018-05-18T11:12:07.997Z,17.39
2018-05-18T11:13:07.967Z,17.45
2018-05-18T11:14:09.539Z,17.49
2018-05-18T11:15:08.049Z,17.51
2018-05-18T11:16:07.984Z,17.59
2018-05-18T11:17:07.975Z,17.58
2018-05-18T11:18:07.990Z,17.79
2018-05-18T11:19:08.022Z,17.82
2018-05-18T11:20:08.726Z,17.81
2018-05-18T11:21:08.019Z,17.77
2018-05-18T11:22:07.955Z,17.83
2018-05-18T11:23:08.008Z,17.8
2018-05-18T11:24:08.144Z,17.77
2018-05-18T11:25:08.122Z,17.95
2018-05-18T11:26:08.017Z,17.99
2018-05-18T11:27:07.993Z,17.92
2018-05-18T11:28:08.025Z,17.98
2018-05-18T11:29:08.007Z,17.95
2018-05-18T11:30:07.982Z,17.87
2018-05-18T11:31:08.018Z,17.85
2018-05-18T11:32:08.011Z,17.8
2018-05-18T11:33:08.615Z,17.77
2018-05-18T11:34:07.976Z,17.8
2018-05-18T11:35:07.979Z,17.7
2018-05-18T11:36:07.958Z,17.81
2018-05-18T11:37:07.969Z,17.88
2018-05-18T11:38:07.988Z,17.71
2018-05-18T11:39:08.701Z,17.69
2018-05-18T11:40:07.992Z,17.79
2018-05-18T11:41:08.081Z,18
2018-05-18T11:42:08.037Z,18.05
2018-05-18T11:43:08.002Z,18.13
2018-05-18T11:44:08.000Z,18.11
2018-05-18T11:45:08.051Z,18.03
2018-05-18T11:46:08.024Z,18.07
2018-05-18T11:47:08.000Z,18.06
2018-05-18T11:48:08.836Z,18.07
2018-05-18T11:49:08.084Z,18.16
2018-05-18T11:50:08.242Z,18.14
2018-05-18T11:51:08.023Z,18.15
2018-05-18T11:52:07.979Z,18.13
2018-05-18T11:53:08.038Z,18.05
2018-05-18T11:54:08.011Z,18.19
2018-05-18T11:55:08.000Z,18.27
2018-05-18T11:56:08.039Z,18.32
2018-05-18T11:57:08.390Z,18.42
2018-05-18T11:58:08.019Z,18.32
2018-05-18T11:59:08.000Z,18.28
2018-05-18T12:00:08.085Z,18.22
2018-05-18T12:01:08.086Z,18.34
2018-05-18T12:02:08.030Z,18.41
2018-05-18T12:03:08.106Z,18.49
2018-05-18T12:04:08.092Z,18.53
2018-05-18T12:05:08.054Z,18.64
2018-05-18T12:06:08.001Z,18.69
2018-05-18T12:07:08.104Z,18.61
2018-05-18T12:08:08.291Z,18.69
2018-05-18T12:09:07.992Z,18.81
2018-05-18T12:10:08.080Z,18.72
2018-05-18T12:11:08.087Z,18.67
2018-05-18T12:12:08.008Z,18.49
2018-05-18T12:13:08.050Z,18.51
2018-05-18T12:14:08.590Z,18.49
2018-05-18T12:15:08.085Z,18.54
2018-05-18T12:16:08.130Z,18.2
2018-05-18T12:17:08.047Z,18.25
2018-05-18T12:18:08.269Z,18.35
2018-05-18T12:19:08.063Z,18.52
2018-05-18T12:20:08.286Z,18.56
2018-05-18T12:21:08.232Z,18.64
2018-05-18T12:22:08.272Z,18.55
2018-05-18T12:23:07.996Z,18.64
2018-05-18T12:24:08.000Z,18.63
2018-05-18T12:25:08.255Z,18.43
2018-05-18T12:26:08.667Z,18.44
2018-05-18T12:27:08.301Z,18.48
2018-05-18T12:28:08.203Z,18.56
2018-05-18T12:29:08.291Z,18.54
2018-05-18T12:30:08.048Z,18.63
2018-05-18T12:31:08.069Z,18.63
2018-05-18T12:32:08.019Z,18.68
2018-05-18T12:33:08.066Z,18.79
2018-05-18T12:34:08.234Z,18.77
2018-05-18T12:35:08.045Z,18.74
2018-05-18T12:36:08.067Z,18.73
2018-05-18T12:37:08.022Z,18.72
2018-05-18T12:38:09.078Z,18.78
2018-05-18T12:39:08.034Z,18.73
2018-05-18T12:40:08.002Z,18.76
2018-05-18T12:41:08.006Z,18.86
2018-05-18T12:42:08.105Z,18.91
2018-05-18T12:43:08.000Z,18.98
2018-05-18T12:44:08.037Z,19.02
2018-05-18T12:45:08.118Z,19.03
2018-05-18T12:46:08.587Z,19.01
2018-05-18T12:47:08.139Z,18.87
2018-05-18T12:48:08.037Z,18.92
2018-05-18T12:49:08.138Z,18.89
2018-05-18T12:50:08.160Z,18.98
2018-05-18T12:51:08.382Z,18.95
2018-05-18T12:52:08.045Z,18.95
2018-05-18T12:53:08.198Z,19.06
2018-05-18T12:54:09.721Z,19.19
2018-05-18T12:55:08.096Z,19.26